sensor_id;sensor_type;location;lat;lon;timestamp;pressure;altitude;pressure_sealevel;temperature
61977;BMP280;45905;50.570;10.428;2023-09-08T00:00:25;98304.78;;;17.63
61977;BMP280;45905;50.570;10.428;2023-09-08T00:02:52;98310.88;;;17.62
61977;BMP280;45905;50.570;10.428;2023-09-08T00:05:19;98318.75;;;17.60
61977;BMP280;45905;50.570;10.428;2023-09-08T00:07:46;98312.44;;;17.57
61977;BMP280;45905;50.570;10.428;2023-09-08T00:10:14;98300.19;;;17.52
61977;BMP280;45905;50.570;10.428;2023-09-08T00:12:42;98308.84;;;17.51
61977;BMP280;45905;50.570;10.428;2023-09-08T00:15:10;98309.25;;;17.48
61977;BMP280;45905;50.570;10.428;2023-09-08T00:17:37;98312.16;;;17.45
61977;BMP280;45905;50.570;10.428;2023-09-08T00:20:06;98302.06;;;17.38
61977;BMP280;45905;50.570;10.428;2023-09-08T00:22:38;98304.03;;;17.36
61977;BMP280;45905;50.570;10.428;2023-09-08T00:25:06;98299.31;;;17.33
61977;BMP280;45905;50.570;10.428;2023-09-08T00:27:33;98308.94;;;17.31
61977;BMP280;45905;50.570;10.428;2023-09-08T00:30:00;98303.38;;;17.27
61977;BMP280;45905;50.570;10.428;2023-09-08T00:32:29;98313.00;;;17.25
61977;BMP280;45905;50.570;10.428;2023-09-08T00:34:57;98308.28;;;17.22
61977;BMP280;45905;50.570;10.428;2023-09-08T00:37:26;98317.13;;;17.20
61977;BMP280;45905;50.570;10.428;2023-09-08T00:39:54;98312.34;;;17.17
61977;BMP280;45905;50.570;10.428;2023-09-08T00:42:21;98304.47;;;17.12
61977;BMP280;45905;50.570;10.428;2023-09-08T00:44:54;98310.91;;;17.08
61977;BMP280;45905;50.570;10.428;2023-09-08T00:47:24;98313.88;;;17.05
61977;BMP280;45905;50.570;10.428;2023-09-08T00:49:52;98311.66;;;17.02
61977;BMP280;45905;50.570;10.428;2023-09-08T00:52:19;98316.16;;;17.00
61977;BMP280;45905;50.570;10.428;2023-09-08T00:54:46;98315.75;;;16.97
61977;BMP280;45905;50.570;10.428;2023-09-08T00:57:13;98311.78;;;16.95
61977;BMP280;45905;50.570;10.428;2023-09-08T00:59:43;98317.06;;;16.93
61977;BMP280;45905;50.570;10.428;2023-09-08T01:02:11;98319.19;;;16.90
61977;BMP280;45905;50.570;10.428;2023-09-08T01:04:38;98322.94;;;16.87
61977;BMP280;45905;50.570;10.428;2023-09-08T01:07:09;98324.06;;;16.85
61977;BMP280;45905;50.570;10.428;2023-09-08T01:09:37;98312.59;;;16.81
61977;BMP280;45905;50.570;10.428;2023-09-08T01:12:07;98328.34;;;16.78
61977;BMP280;45905;50.570;10.428;2023-09-08T01:14:34;98316.88;;;16.74
61977;BMP280;45905;50.570;10.428;2023-09-08T01:17:02;98315.69;;;16.70
61977;BMP280;45905;50.570;10.428;2023-09-08T01:19:30;98317.63;;;16.68
61977;BMP280;45905;50.570;10.428;2023-09-08T01:27:46;98320.66;;;16.58
61977;BMP280;45905;50.570;10.428;2023-09-08T01:30:14;98300.56;;;16.55
61977;BMP280;45905;50.570;10.428;2023-09-08T01:32:43;98311.97;;;16.52
61977;BMP280;45905;50.570;10.428;2023-09-08T01:35:12;98313.09;;;16.50
61977;BMP280;45905;50.570;10.428;2023-09-08T01:37:48;98309.13;;;16.47
61977;BMP280;45905;50.570;10.428;2023-09-08T01:40:16;98311.28;;;16.44
61977;BMP280;45905;50.570;10.428;2023-09-08T01:42:44;98307.94;;;16.43
61977;BMP280;45905;50.570;10.428;2023-09-08T01:45:12;98305.72;;;16.41
61977;BMP280;45905;50.570;10.428;2023-09-08T01:47:39;98306.28;;;16.36
61977;BMP280;45905;50.570;10.428;2023-09-08T01:50:06;98304.88;;;16.34
61977;BMP280;45905;50.570;10.428;2023-09-08T01:52:34;98304.25;;;16.32
61977;BMP280;45905;50.570;10.428;2023-09-08T01:55:01;98302.25;;;16.27
61977;BMP280;45905;50.570;10.428;2023-09-08T01:57:28;98298.91;;;16.27
61977;BMP280;45905;50.570;10.428;2023-09-08T01:59:56;98301.63;;;16.25
61977;BMP280;45905;50.570;10.428;2023-09-08T02:02:23;98299.44;;;16.23
61977;BMP280;45905;50.570;10.428;2023-09-08T02:04:51;98305.69;;;16.20
61977;BMP280;45905;50.570;10.428;2023-09-08T02:07:20;98296.63;;;16.18
61977;BMP280;45905;50.570;10.428;2023-09-08T02:09:50;98299.91;;;16.12
61977;BMP280;45905;50.570;10.428;2023-09-08T02:12:19;98304.22;;;16.11
61977;BMP280;45905;50.570;10.428;2023-09-08T02:14:46;98292.78;;;16.07
61977;BMP280;45905;50.570;10.428;2023-09-08T02:17:13;98298.84;;;16.06
61977;BMP280;45905;50.570;10.428;2023-09-08T02:19:41;98296.47;;;16.05
61977;BMP280;45905;50.570;10.428;2023-09-08T02:22:09;98294.28;;;16.02
61977;BMP280;45905;50.570;10.428;2023-09-08T02:24:36;98298.78;;;16.00
61977;BMP280;45905;50.570;10.428;2023-09-08T02:27:04;98302.63;;;15.96
61977;BMP280;45905;50.570;10.428;2023-09-08T02:29:31;98294.34;;;15.94
61977;BMP280;45905;50.570;10.428;2023-09-08T02:31:59;98298.88;;;15.92
61977;BMP280;45905;50.570;10.428;2023-09-08T02:34:26;98292.84;;;15.85
61977;BMP280;45905;50.570;10.428;2023-09-08T02:36:53;98299.56;;;15.86
61977;BMP280;45905;50.570;10.428;2023-09-08T02:39:24;98309.16;;;15.84
61977;BMP280;45905;50.570;10.428;2023-09-08T02:41:54;98304.25;;;15.83
61977;BMP280;45905;50.570;10.428;2023-09-08T02:44:21;98285.91;;;15.80
61977;BMP280;45905;50.570;10.428;2023-09-08T02:46:49;98302.38;;;15.77
61977;BMP280;45905;50.570;10.428;2023-09-08T02:49:16;98296.06;;;15.73
61977;BMP280;45905;50.570;10.428;2023-09-08T02:51:44;98290.50;;;15.70
61977;BMP280;45905;50.570;10.428;2023-09-08T02:54:11;98300.09;;;15.68
61977;BMP280;45905;50.570;10.428;2023-09-08T02:56:38;98299.84;;;15.63
61977;BMP280;45905;50.570;10.428;2023-09-08T02:59:05;98297.28;;;15.63
61977;BMP280;45905;50.570;10.428;2023-09-08T03:01:33;98301.78;;;15.61
61977;BMP280;45905;50.570;10.428;2023-09-08T03:04:00;98302.13;;;15.58
61977;BMP280;45905;50.570;10.428;2023-09-08T03:06:27;98295.78;;;15.54
61977;BMP280;45905;50.570;10.428;2023-09-08T03:08:55;98299.31;;;15.53
61977;BMP280;45905;50.570;10.428;2023-09-08T03:11:22;98294.56;;;15.50
61977;BMP280;45905;50.570;10.428;2023-09-08T03:13:50;98294.91;;;15.47
61977;BMP280;45905;50.570;10.428;2023-09-08T03:16:17;98303.53;;;15.46
61977;BMP280;45905;50.570;10.428;2023-09-08T03:18:44;98298.00;;;15.43
61977;BMP280;45905;50.570;10.428;2023-09-08T03:21:14;98291.84;;;15.38
61977;BMP280;45905;50.570;10.428;2023-09-08T03:23:43;98297.09;;;15.36
61977;BMP280;45905;50.570;10.428;2023-09-08T03:26:11;98293.94;;;15.34
61977;BMP280;45905;50.570;10.428;2023-09-08T03:28:38;98300.78;;;15.34
61977;BMP280;45905;50.570;10.428;2023-09-08T03:31:06;98300.16;;;15.32
61977;BMP280;45905;50.570;10.428;2023-09-08T03:33:34;98296.22;;;15.29
61977;BMP280;45905;50.570;10.428;2023-09-08T03:36:04;98285.56;;;15.26
61977;BMP280;45905;50.570;10.428;2023-09-08T03:38:31;98295.78;;;15.26
61977;BMP280;45905;50.570;10.428;2023-09-08T03:41:00;98290.03;;;15.24
61977;BMP280;45905;50.570;10.428;2023-09-08T03:43:27;98287.84;;;15.21
61977;BMP280;45905;50.570;10.428;2023-09-08T03:45:56;98284.69;;;15.19
61977;BMP280;45905;50.570;10.428;2023-09-08T03:48:23;98285.03;;;15.16
61977;BMP280;45905;50.570;10.428;2023-09-08T03:50:51;98295.59;;;15.13
61977;BMP280;45905;50.570;10.428;2023-09-08T03:53:18;98295.13;;;15.10
61977;BMP280;45905;50.570;10.428;2023-09-08T03:55:46;98291.16;;;15.07
61977;BMP280;45905;50.570;10.428;2023-09-08T03:58:14;98285.44;;;15.06
61977;BMP280;45905;50.570;10.428;2023-09-08T04:00:42;98283.88;;;15.05
61977;BMP280;45905;50.570;10.428;2023-09-08T04:03:11;98282.47;;;15.02
61977;BMP280;45905;50.570;10.428;2023-09-08T04:05:38;98279.44;;;14.99
61977;BMP280;45905;50.570;10.428;2023-09-08T04:08:05;98282.38;;;14.96
61977;BMP280;45905;50.570;10.428;2023-09-08T04:10:33;98280.78;;;14.95
61977;BMP280;45905;50.570;10.428;2023-09-08T04:13:00;98274.38;;;14.91
61977;BMP280;45905;50.570;10.428;2023-09-08T04:15:27;98271.22;;;14.89
61977;BMP280;45905;50.570;10.428;2023-09-08T04:17:54;98273.16;;;14.87
61977;BMP280;45905;50.570;10.428;2023-09-08T04:20:25;98273.50;;;14.84
61977;BMP280;45905;50.570;10.428;2023-09-08T04:22:53;98281.16;;;14.84
61977;BMP280;45905;50.570;10.428;2023-09-08T04:25:21;98277.34;;;14.80
61977;BMP280;45905;50.570;10.428;2023-09-08T04:27:48;98288.72;;;14.78
61977;BMP280;45905;50.570;10.428;2023-09-08T04:30:16;98290.78;;;14.74
61977;BMP280;45905;50.570;10.428;2023-09-08T04:32:44;98287.00;;;14.70
61977;BMP280;45905;50.570;10.428;2023-09-08T04:35:12;98292.13;;;14.70
61977;BMP280;45905;50.570;10.428;2023-09-08T04:37:39;98292.44;;;14.68
61977;BMP280;45905;50.570;10.428;2023-09-08T04:40:07;98295.97;;;14.67
61977;BMP280;45905;50.570;10.428;2023-09-08T04:42:35;98290.06;;;14.66
61977;BMP280;45905;50.570;10.428;2023-09-08T04:45:04;98286.09;;;14.64
61977;BMP280;45905;50.570;10.428;2023-09-08T04:47:33;98286.25;;;14.62
61977;BMP280;45905;50.570;10.428;2023-09-08T04:50:00;98288.38;;;14.59
61977;BMP280;45905;50.570;10.428;2023-09-08T04:52:27;98285.19;;;14.57
61977;BMP280;45905;50.570;10.428;2023-09-08T04:54:56;98288.69;;;14.56
61977;BMP280;45905;50.570;10.428;2023-09-08T04:57:24;98293.81;;;14.56
61977;BMP280;45905;50.570;10.428;2023-09-08T04:59:56;98299.88;;;14.55
61977;BMP280;45905;50.570;10.428;2023-09-08T05:02:24;98296.50;;;14.54
61977;BMP280;45905;50.570;10.428;2023-09-08T05:04:51;98292.56;;;14.52
61977;BMP280;45905;50.570;10.428;2023-09-08T05:07:19;98298.47;;;14.52
61977;BMP280;45905;50.570;10.428;2023-09-08T05:09:47;98301.81;;;14.53
61977;BMP280;45905;50.570;10.428;2023-09-08T05:12:14;98306.91;;;14.53
61977;BMP280;45905;50.570;10.428;2023-09-08T05:14:42;98303.56;;;14.52
61977;BMP280;45905;50.570;10.428;2023-09-08T05:17:09;98311.81;;;14.54
61977;BMP280;45905;50.570;10.428;2023-09-08T05:19:36;98303.56;;;14.52
61977;BMP280;45905;50.570;10.428;2023-09-08T05:22:06;98312.97;;;14.52
61977;BMP280;45905;50.570;10.428;2023-09-08T05:24:36;98310.41;;;14.52
61977;BMP280;45905;50.570;10.428;2023-09-08T05:27:04;98308.81;;;14.51
61977;BMP280;45905;50.570;10.428;2023-09-08T05:29:32;98308.19;;;14.49
61977;BMP280;45905;50.570;10.428;2023-09-08T05:31:59;98305.66;;;14.49
61977;BMP280;45905;50.570;10.428;2023-09-08T05:34:26;98304.84;;;14.49
61977;BMP280;45905;50.570;10.428;2023-09-08T05:36:53;98293.88;;;14.48
61977;BMP280;45905;50.570;10.428;2023-09-08T05:39:21;98299.44;;;14.51
61977;BMP280;45905;50.570;10.428;2023-09-08T05:41:49;98312.97;;;14.52
61977;BMP280;45905;50.570;10.428;2023-09-08T05:44:18;98304.97;;;14.55
61977;BMP280;45905;50.570;10.428;2023-09-08T05:46:45;98302.41;;;14.55
61977;BMP280;45905;50.570;10.428;2023-09-08T05:49:13;98315.16;;;14.55
61977;BMP280;45905;50.570;10.428;2023-09-08T05:51:41;98318.88;;;14.52
61977;BMP280;45905;50.570;10.428;2023-09-08T05:54:09;98313.75;;;14.52
61977;BMP280;45905;50.570;10.428;2023-09-08T05:56:38;98323.31;;;14.50
61977;BMP280;45905;50.570;10.428;2023-09-08T05:59:05;98318.06;;;14.52
61977;BMP280;45905;50.570;10.428;2023-09-08T06:01:33;98320.31;;;14.47
61977;BMP280;45905;50.570;10.428;2023-09-08T06:04:02;98319.06;;;14.43
61977;BMP280;45905;50.570;10.428;2023-09-08T06:06:30;98322.91;;;14.39
61977;BMP280;45905;50.570;10.428;2023-09-08T06:08:58;98327.53;;;14.36
61977;BMP280;45905;50.570;10.428;2023-09-08T06:11:26;98328.53;;;14.35
61977;BMP280;45905;50.570;10.428;2023-09-08T06:13:54;98324.03;;;14.37
61977;BMP280;45905;50.570;10.428;2023-09-08T06:16:29;98325.63;;;14.38
61977;BMP280;45905;50.570;10.428;2023-09-08T06:18:56;98324.50;;;14.40
61977;BMP280;45905;50.570;10.428;2023-09-08T06:21:24;98323.22;;;14.44
61977;BMP280;45905;50.570;10.428;2023-09-08T06:23:51;98327.78;;;14.49
61977;BMP280;45905;50.570;10.428;2023-09-08T06:26:19;98324.75;;;14.53
61977;BMP280;45905;50.570;10.428;2023-09-08T06:28:46;98323.44;;;14.57
61977;BMP280;45905;50.570;10.428;2023-09-08T06:31:13;98327.06;;;14.62
61977;BMP280;45905;50.570;10.428;2023-09-08T06:33:42;98324.16;;;14.65
61977;BMP280;45905;50.570;10.428;2023-09-08T06:36:10;98335.47;;;14.70
61977;BMP280;45905;50.570;10.428;2023-09-08T06:38:37;98335.75;;;14.75
61977;BMP280;45905;50.570;10.428;2023-09-08T06:41:11;98325.00;;;14.80
61977;BMP280;45905;50.570;10.428;2023-09-08T06:43:39;98323.72;;;14.84
61977;BMP280;45905;50.570;10.428;2023-09-08T06:46:15;98327.69;;;14.86
61977;BMP280;45905;50.570;10.428;2023-09-08T06:48:42;98328.75;;;14.91
61977;BMP280;45905;50.570;10.428;2023-09-08T06:51:10;98324.16;;;14.95
61977;BMP280;45905;50.570;10.428;2023-09-08T06:53:39;98330.47;;;14.99
61977;BMP280;45905;50.570;10.428;2023-09-08T06:56:06;98328.56;;;15.01
61977;BMP280;45905;50.570;10.428;2023-09-08T06:58:33;98332.34;;;15.05
61977;BMP280;45905;50.570;10.428;2023-09-08T07:01:02;98332.34;;;15.05
61977;BMP280;45905;50.570;10.428;2023-09-08T07:03:30;98329.44;;;15.07
61977;BMP280;45905;50.570;10.428;2023-09-08T07:06:06;98332.88;;;15.14
61977;BMP280;45905;50.570;10.428;2023-09-08T07:08:34;98334.94;;;15.19
61977;BMP280;45905;50.570;10.428;2023-09-08T07:11:02;98334.41;;;15.23
61977;BMP280;45905;50.570;10.428;2023-09-08T07:13:30;98335.47;;;15.28
61977;BMP280;45905;50.570;10.428;2023-09-08T07:15:58;98326.50;;;15.32
61977;BMP280;45905;50.570;10.428;2023-09-08T07:18:26;98336.19;;;15.37
61977;BMP280;45905;50.570;10.428;2023-09-08T07:20:53;98325.28;;;15.43
61977;BMP280;45905;50.570;10.428;2023-09-08T07:23:21;98330.66;;;15.47
61977;BMP280;45905;50.570;10.428;2023-09-08T07:25:49;98329.16;;;15.53
61977;BMP280;45905;50.570;10.428;2023-09-08T07:28:20;98325.47;;;15.55
61977;BMP280;45905;50.570;10.428;2023-09-08T07:30:50;98327.31;;;15.61
61977;BMP280;45905;50.570;10.428;2023-09-08T07:33:18;98321.88;;;15.64
61977;BMP280;45905;50.570;10.428;2023-09-08T07:35:47;98321.50;;;15.67
61977;BMP280;45905;50.570;10.428;2023-09-08T07:38:14;98331.03;;;15.73
61977;BMP280;45905;50.570;10.428;2023-09-08T07:40:41;98320.25;;;15.77
61977;BMP280;45905;50.570;10.428;2023-09-08T07:43:09;98323.50;;;15.85
61977;BMP280;45905;50.570;10.428;2023-09-08T07:45:36;98319.91;;;15.94
61977;BMP280;45905;50.570;10.428;2023-09-08T07:48:04;98332.00;;;16.00
61977;BMP280;45905;50.570;10.428;2023-09-08T07:50:31;98302.38;;;16.05
61977;BMP280;45905;50.570;10.428;2023-09-08T07:52:58;98310.72;;;16.14
61977;BMP280;45905;50.570;10.428;2023-09-08T07:55:25;98302.00;;;16.23
61977;BMP280;45905;50.570;10.428;2023-09-08T07:57:57;98305.66;;;16.34
61977;BMP280;45905;50.570;10.428;2023-09-08T08:00:24;98308.09;;;16.42
61977;BMP280;45905;50.570;10.428;2023-09-08T08:02:55;98309.13;;;16.47
61977;BMP280;45905;50.570;10.428;2023-09-08T08:05:23;98305.31;;;16.58
61977;BMP280;45905;50.570;10.428;2023-09-08T08:07:51;98307.38;;;16.68
61977;BMP280;45905;50.570;10.428;2023-09-08T08:10:18;98304.34;;;16.79
61977;BMP280;45905;50.570;10.428;2023-09-08T08:12:46;98303.66;;;16.91
61977;BMP280;45905;50.570;10.428;2023-09-08T08:15:13;98304.97;;;17.01
61977;BMP280;45905;50.570;10.428;2023-09-08T08:17:41;98301.66;;;17.07
61977;BMP280;45905;50.570;10.428;2023-09-08T08:20:11;98303.09;;;17.16
61977;BMP280;45905;50.570;10.428;2023-09-08T08:22:45;98286.59;;;17.25
61977;BMP280;45905;50.570;10.428;2023-09-08T08:25:12;98292.81;;;17.37
61977;BMP280;45905;50.570;10.428;2023-09-08T08:27:40;98293.88;;;17.48
61977;BMP280;45905;50.570;10.428;2023-09-08T08:30:08;98290.22;;;17.63
61977;BMP280;45905;50.570;10.428;2023-09-08T08:32:35;98288.53;;;17.76
61977;BMP280;45905;50.570;10.428;2023-09-08T08:35:03;98283.47;;;17.89
61977;BMP280;45905;50.570;10.428;2023-09-08T08:37:34;98287.88;;;18.01
61977;BMP280;45905;50.570;10.428;2023-09-08T08:40:01;98287.09;;;18.14
61977;BMP280;45905;50.570;10.428;2023-09-08T08:42:33;98284.59;;;18.33
61977;BMP280;45905;50.570;10.428;2023-09-08T08:45:01;98277.31;;;18.42
61977;BMP280;45905;50.570;10.428;2023-09-08T08:47:30;98274.19;;;18.47
61977;BMP280;45905;50.570;10.428;2023-09-08T08:50:00;98280.88;;;18.48
61977;BMP280;45905;50.570;10.428;2023-09-08T08:52:29;98279.34;;;18.59
61977;BMP280;45905;50.570;10.428;2023-09-08T08:54:57;98268.91;;;18.73
61977;BMP280;45905;50.570;10.428;2023-09-08T08:57:25;98277.22;;;18.88
61977;BMP280;45905;50.570;10.428;2023-09-08T08:59:54;98280.00;;;18.99
61977;BMP280;45905;50.570;10.428;2023-09-08T09:02:25;98273.84;;;19.13
61977;BMP280;45905;50.570;10.428;2023-09-08T09:04:53;98272.47;;;19.17
61977;BMP280;45905;50.570;10.428;2023-09-08T09:07:20;98271.84;;;19.28
61977;BMP280;45905;50.570;10.428;2023-09-08T09:09:48;98265.13;;;19.39
61977;BMP280;45905;50.570;10.428;2023-09-08T09:12:15;98262.34;;;19.47
61977;BMP280;45905;50.570;10.428;2023-09-08T09:14:46;98270.63;;;19.62
61977;BMP280;45905;50.570;10.428;2023-09-08T09:17:16;98262.91;;;19.68
61977;BMP280;45905;50.570;10.428;2023-09-08T09:19:44;98244.09;;;19.74
61977;BMP280;45905;50.570;10.428;2023-09-08T09:22:11;98250.78;;;19.81
61977;BMP280;45905;50.570;10.428;2023-09-08T09:24:41;98257.47;;;19.88
61977;BMP280;45905;50.570;10.428;2023-09-08T09:27:12;98253.91;;;19.96
61977;BMP280;45905;50.570;10.428;2023-09-08T09:29:48;98254.44;;;20.10
61977;BMP280;45905;50.570;10.428;2023-09-08T09:32:23;98259.09;;;20.26
61977;BMP280;45905;50.570;10.428;2023-09-08T09:34:53;98254.47;;;20.41
61977;BMP280;45905;50.570;10.428;2023-09-08T09:37:21;98256.78;;;20.48
61977;BMP280;45905;50.570;10.428;2023-09-08T09:39:53;98254.78;;;20.57
61977;BMP280;45905;50.570;10.428;2023-09-08T09:42:21;98242.00;;;20.68
61977;BMP280;45905;50.570;10.428;2023-09-08T09:44:51;98247.88;;;20.75
61977;BMP280;45905;50.570;10.428;2023-09-08T09:47:19;98242.50;;;20.83
61977;BMP280;45905;50.570;10.428;2023-09-08T09:49:48;98246.94;;;20.93
61977;BMP280;45905;50.570;10.428;2023-09-08T09:52:24;98232.19;;;21.06
61977;BMP280;45905;50.570;10.428;2023-09-08T09:54:53;98236.09;;;21.15
61977;BMP280;45905;50.570;10.428;2023-09-08T09:57:22;98233.25;;;21.23
61977;BMP280;45905;50.570;10.428;2023-09-08T09:59:51;98225.59;;;21.34
61977;BMP280;45905;50.570;10.428;2023-09-08T10:02:21;98232.84;;;21.43
61977;BMP280;45905;50.570;10.428;2023-09-08T10:04:50;98221.25;;;21.52
61977;BMP280;45905;50.570;10.428;2023-09-08T10:07:18;98224.44;;;21.65
61977;BMP280;45905;50.570;10.428;2023-09-08T10:09:46;98224.16;;;21.73
61977;BMP280;45905;50.570;10.428;2023-09-08T10:12:15;98215.63;;;21.73
61977;BMP280;45905;50.570;10.428;2023-09-08T10:14:43;98227.75;;;21.90
61977;BMP280;45905;50.570;10.428;2023-09-08T10:17:25;98221.06;;;22.00
61977;BMP280;45905;50.570;10.428;2023-09-08T10:20:01;98219.69;;;21.98
61977;BMP280;45905;50.570;10.428;2023-09-08T10:22:30;98217.00;;;21.93
61977;BMP280;45905;50.570;10.428;2023-09-08T10:25:03;98211.84;;;21.93
61977;BMP280;45905;50.570;10.428;2023-09-08T10:27:33;98218.97;;;22.08
61977;BMP280;45905;50.570;10.428;2023-09-08T10:30:06;98206.16;;;22.31
61977;BMP280;45905;50.570;10.428;2023-09-08T10:32:36;98215.66;;;22.59
61977;BMP280;45905;50.570;10.428;2023-09-08T10:35:05;98205.94;;;22.83
61977;BMP280;45905;50.570;10.428;2023-09-08T10:37:33;98217.97;;;23.00
61977;BMP280;45905;50.570;10.428;2023-09-08T10:40:24;98212.78;;;23.12
61977;BMP280;45905;50.570;10.428;2023-09-08T10:43:08;98202.34;;;23.18
61977;BMP280;45905;50.570;10.428;2023-09-08T10:45:36;98206.25;;;23.20
61977;BMP280;45905;50.570;10.428;2023-09-08T10:48:03;98204.16;;;23.29
61977;BMP280;45905;50.570;10.428;2023-09-08T10:50:35;98213.69;;;23.39
61977;BMP280;45905;50.570;10.428;2023-09-08T10:53:25;98194.72;;;23.45
61977;BMP280;45905;50.570;10.428;2023-09-08T10:55:53;98188.28;;;23.48
61977;BMP280;45905;50.570;10.428;2023-09-08T10:58:35;98195.88;;;23.65
61977;BMP280;45905;50.570;10.428;2023-09-08T11:01:18;98189.72;;;23.93
61977;BMP280;45905;50.570;10.428;2023-09-08T11:03:47;98194.13;;;24.20
61977;BMP280;45905;50.570;10.428;2023-09-08T11:06:18;98186.22;;;24.43
61977;BMP280;45905;50.570;10.428;2023-09-08T11:08:46;98190.34;;;24.55
61977;BMP280;45905;50.570;10.428;2023-09-08T11:11:16;98193.63;;;24.50
61977;BMP280;45905;50.570;10.428;2023-09-08T11:13:44;98195.03;;;24.42
61977;BMP280;45905;50.570;10.428;2023-09-08T11:16:15;98192.13;;;24.38
61977;BMP280;45905;50.570;10.428;2023-09-08T11:18:43;98182.09;;;24.58
61977;BMP280;45905;50.570;10.428;2023-09-08T11:21:10;98179.53;;;24.90
61977;BMP280;45905;50.570;10.428;2023-09-08T11:23:38;98178.78;;;25.10
61977;BMP280;45905;50.570;10.428;2023-09-08T11:26:06;98177.28;;;25.14
61977;BMP280;45905;50.570;10.428;2023-09-08T11:28:36;98173.50;;;25.38
61977;BMP280;45905;50.570;10.428;2023-09-08T11:31:05;98173.72;;;25.57
61977;BMP280;45905;50.570;10.428;2023-09-08T11:33:35;98166.84;;;25.67
61977;BMP280;45905;50.570;10.428;2023-09-08T11:36:15;98161.53;;;25.79
61977;BMP280;45905;50.570;10.428;2023-09-08T11:38:44;98164.53;;;25.92
61977;BMP280;45905;50.570;10.428;2023-09-08T11:41:12;98164.66;;;26.02
61977;BMP280;45905;50.570;10.428;2023-09-08T11:43:40;98152.31;;;26.13
61977;BMP280;45905;50.570;10.428;2023-09-08T11:46:07;98159.13;;;26.19
61977;BMP280;45905;50.570;10.428;2023-09-08T11:48:37;98158.94;;;26.25
61977;BMP280;45905;50.570;10.428;2023-09-08T11:51:07;98158.47;;;26.33
61977;BMP280;45905;50.570;10.428;2023-09-08T11:53:37;98163.00;;;26.47
61977;BMP280;45905;50.570;10.428;2023-09-08T11:56:05;98153.81;;;26.61
61977;BMP280;45905;50.570;10.428;2023-09-08T11:58:33;98155.19;;;26.73
61977;BMP280;45905;50.570;10.428;2023-09-08T12:01:03;98156.13;;;26.98
61977;BMP280;45905;50.570;10.428;2023-09-08T12:03:31;98140.44;;;27.19
61977;BMP280;45905;50.570;10.428;2023-09-08T12:05:59;98143.63;;;27.36
61977;BMP280;45905;50.570;10.428;2023-09-08T12:08:27;98146.81;;;27.47
61977;BMP280;45905;50.570;10.428;2023-09-08T12:10:54;98145.28;;;27.56
61977;BMP280;45905;50.570;10.428;2023-09-08T12:13:23;98145.63;;;27.79
61977;BMP280;45905;50.570;10.428;2023-09-08T12:15:51;98132.13;;;27.96
61977;BMP280;45905;50.570;10.428;2023-09-08T12:18:18;98139.44;;;28.04
61977;BMP280;45905;50.570;10.428;2023-09-08T12:20:45;98136.31;;;28.02
61977;BMP280;45905;50.570;10.428;2023-09-08T12:23:19;98130.59;;;28.05
61977;BMP280;45905;50.570;10.428;2023-09-08T12:25:52;98126.69;;;28.13
61977;BMP280;45905;50.570;10.428;2023-09-08T12:28:21;98116.59;;;28.35
61977;BMP280;45905;50.570;10.428;2023-09-08T12:30:50;98108.47;;;28.47
61977;BMP280;45905;50.570;10.428;2023-09-08T12:33:17;98112.94;;;28.51
61977;BMP280;45905;50.570;10.428;2023-09-08T12:35:48;98119.44;;;28.58
61977;BMP280;45905;50.570;10.428;2023-09-08T12:38:18;98112.66;;;28.67
61977;BMP280;45905;50.570;10.428;2023-09-08T12:40:46;98116.03;;;28.77
61977;BMP280;45905;50.570;10.428;2023-09-08T12:43:13;98113.66;;;28.91
61977;BMP280;45905;50.570;10.428;2023-09-08T12:45:54;98103.69;;;29.07
61977;BMP280;45905;50.570;10.428;2023-09-08T12:48:22;98104.19;;;29.19
61977;BMP280;45905;50.570;10.428;2023-09-08T12:50:50;98091.69;;;29.21
61977;BMP280;45905;50.570;10.428;2023-09-08T12:53:17;98099.16;;;29.42
61977;BMP280;45905;50.570;10.428;2023-09-08T12:55:46;98089.97;;;29.59
61977;BMP280;45905;50.570;10.428;2023-09-08T12:58:14;98096.94;;;29.73
61977;BMP280;45905;50.570;10.428;2023-09-08T13:00:43;98085.66;;;29.82
61977;BMP280;45905;50.570;10.428;2023-09-08T13:03:10;98092.94;;;29.90
61977;BMP280;45905;50.570;10.428;2023-09-08T13:05:37;98091.84;;;29.96
61977;BMP280;45905;50.570;10.428;2023-09-08T13:08:06;98091.50;;;30.07
61977;BMP280;45905;50.570;10.428;2023-09-08T13:10:34;98091.16;;;30.18
61977;BMP280;45905;50.570;10.428;2023-09-08T13:13:01;98079.03;;;30.32
61977;BMP280;45905;50.570;10.428;2023-09-08T13:15:29;98078.47;;;30.35
61977;BMP280;45905;50.570;10.428;2023-09-08T13:17:56;98078.44;;;30.45
61977;BMP280;45905;50.570;10.428;2023-09-08T13:20:24;98077.22;;;30.60
61977;BMP280;45905;50.570;10.428;2023-09-08T13:22:51;98074.44;;;30.75
61977;BMP280;45905;50.570;10.428;2023-09-08T13:25:18;98067.53;;;30.88
61977;BMP280;45905;50.570;10.428;2023-09-08T13:27:46;98068.44;;;31.02
61977;BMP280;45905;50.570;10.428;2023-09-08T13:30:16;98069.03;;;31.17
61977;BMP280;45905;50.570;10.428;2023-09-08T13:32:44;98063.41;;;31.28
61977;BMP280;45905;50.570;10.428;2023-09-08T13:35:12;98062.72;;;31.41
61977;BMP280;45905;50.570;10.428;2023-09-08T13:37:39;98052.16;;;31.51
61977;BMP280;45905;50.570;10.428;2023-09-08T13:40:07;98055.09;;;31.62
61977;BMP280;45905;50.570;10.428;2023-09-08T13:42:36;98048.16;;;31.71
61977;BMP280;45905;50.570;10.428;2023-09-08T13:45:05;98049.03;;;31.85
61977;BMP280;45905;50.570;10.428;2023-09-08T13:47:32;98049.31;;;32.01
61977;BMP280;45905;50.570;10.428;2023-09-08T13:50:00;98040.25;;;32.12
61977;BMP280;45905;50.570;10.428;2023-09-08T13:52:32;98033.75;;;32.23
61977;BMP280;45905;50.570;10.428;2023-09-08T13:55:07;98038.25;;;32.36
61977;BMP280;45905;50.570;10.428;2023-09-08T13:57:38;98034.19;;;32.43
61977;BMP280;45905;50.570;10.428;2023-09-08T14:00:08;98034.31;;;32.51
61977;BMP280;45905;50.570;10.428;2023-09-08T14:02:43;98031.53;;;32.61
61977;BMP280;45905;50.570;10.428;2023-09-08T14:05:17;98022.97;;;32.69
61977;BMP280;45905;50.570;10.428;2023-09-08T14:07:51;98017.66;;;32.74
61977;BMP280;45905;50.570;10.428;2023-09-08T14:10:31;98018.22;;;32.84